Aeroporto :
LOGIN :

Iscrizione | Disclaimer

   EN    FR    IT 

 










Sommario :    VFR   VFR Marginale   IFR   IFR Intensivo   IFR Molto Intensivo
Visibilità : 
Base nubi : 
>= 8 km
>= 3000ft
5 / 8 km
1000 / 3000 ft
1500m / 5 km
500 / 1000 ft
800 / 1500m
200 / 500 ft
< 800m
< 200 ft
Simboli :   Temporali  Nebbia  Neve Forte  Precipitazioni Forti  Vento > 20 kt
SIGMETs :   Varie  Temporali  Ghiacco  Turbolenza  Onda orograficha  Ceneri Vulcaniche






- Altitudine del aeroporto : 404 ft
- Codice IATA : WRO


EPWR - Wroclaw

ULTIMO METAR :
  • 240900Z 31007KT CAVOK 08/M00 Q1008

METARs OBSOLETI :
  • 240830Z 29006KT CAVOK 07/01 Q1008
  • 240800Z 28006KT 250V310 CAVOK 06/00 Q1008
  • 240730Z 29005KT 260V330 CAVOK 06/00 Q1008
  • 240700Z 27004KT 220V300 CAVOK 06/M00 Q1008
  • 240630Z VRB02KT CAVOK 05/M01 Q1008
  • 240600Z 30004KT CAVOK 04/00 Q1008
  • 240530Z 30003KT CAVOK 03/01 Q1009
  • 240500Z VRB01KT CAVOK 03/M00 Q1009
  • 240430Z 30004KT CAVOK 02/M00 Q1009

TAF TAF EPWR
Valido dal 24 a 09 ore il 25 a 09 ore UTC


240830Z 2409/2509 28007KT CAVOK
PROB40
TEMPO 2409/2418 BKN014
TEMPO 2502/2506 4000 BR BKN012



MetMap, La meteo Aeronautica in un colpo d'occhio ! - Copyright ORBIFLY Dicembre 2007 - Disclaimer

ORBIFLY MET'MAP TEAM :

Programmazione e sviluppo : Alexandra Zaïnal
Concezione : Baudouin d'Aumeries
Supporto tecnico e logistico : Manuel Goepfert
Aiuto : Marc-Olivier Méhu
Aiuto per la traduzione : Arnaldo La Scala




FONTI E CREDITI :

   NOAA